This is the latest recevied weather packets stored in our database for station/object OE3BCB-14. If no packets are shown the sender has not sent any weather packets the latest 1 day(s).
| Time | Temp. | Humidity | Pressure | Rain* | Wind** | Luminosity | Snow |
|---|---|---|---|---|---|---|---|
| 1777997549 | 31.67° C | 18% | 1005.6 hPa | - | 0 m/s | 52 W/m² | - |
| 1777997246 | 32.78° C | 17% | 1005.7 hPa | - | 0 m/s | 52 W/m² | - |
| 1777996944 | 34.44° C | 17% | 1005.7 hPa | - | 0 m/s | 60 W/m² | - |
| 1777996642 | 35° C | 17% | 1005.7 hPa | - | 0 m/s | 70 W/m² | - |
| 1777996339 | 36.67° C | 17% | 1005.7 hPa | - | 6.26 m/s, 180° | 92 W/m² | - |
| 1777996037 | 35.56° C | 17% | 1005.7 hPa | - | 0.45 m/s, 180° | 115 W/m² | - |
| 1777995734 | 33.89° C | 18% | 1005.6 hPa | - | 0 m/s | 94 W/m² | - |
| 1777995432 | 32.22° C | 18% | 1005.6 hPa | - | 0 m/s | 65 W/m² | - |
| 1777995130 | 32.22° C | 17% | 1005.6 hPa | - | 0 m/s | 57 W/m² | - |
| 1777994827 | 32.78° C | 17% | 1005.6 hPa | - | 0 m/s | 61 W/m² | - |
| 1777994525 | 33.89° C | 17% | 1005.6 hPa | - | 0 m/s | 71 W/m² | - |
| 1777994222 | 34.44° C | 16% | 1005.6 hPa | - | 0 m/s | 78 W/m² | - |
| 1777993920 | 33.33° C | 17% | 1005.6 hPa | - | 0 m/s | 82 W/m² | - |
| 1777993617 | 32.78° C | 16% | 1005.6 hPa | - | 0 m/s | 61 W/m² | - |
| 1777993315 | 33.89° C | 16% | 1005.6 hPa | - | 0 m/s | 62 W/m² | - |
| 1777993013 | 35.56° C | 15% | 1005.6 hPa | - | 0.45 m/s, 180° | 77 W/m² | - |
| 1777992710 | 37.78° C | 15% | 1005.6 hPa | - | 0 m/s | 110 W/m² | - |
| 1777992408 | 37.78° C | 15% | 1005.6 hPa | - | 0 m/s | 120 W/m² | - |
| 1777992105 | 37.78° C | 16% | 1005.5 hPa | - | 0 m/s | 104 W/m² | - |
| 1777991803 | 38.33° C | 15% | 1005.5 hPa | - | 0 m/s | 101 W/m² | - |
| 1777991501 | 37.22° C | 17% | 1005.5 hPa | - | 0 m/s | 142 W/m² | - |
| 1777991198 | 35.56° C | 16% | 1005.6 hPa | - | 0 m/s | 98 W/m² | - |
| 1777990896 | 35.56° C | 16% | 1005.6 hPa | - | 0 m/s | 83 W/m² | - |
| 1777990291 | 38.33° C | 15% | 1005.9 hPa | - | 0 m/s | 97 W/m² | - |
| 1777989989 | 38.33° C | 15% | 1005.8 hPa | - | 0 m/s | 94 W/m² | - |
* Rain since midnight (hover to see other rain measurements)
** Current wind speed in m/s (hover to see current wind gust speed)